Weather at Mataiva Airport

Public forecast

Using degrees Celsius for public forecast. Weather courtesy of forecast.io.

Closest aviation weather report (METAR) to Mataiva Airport

Report is more than 2 hours old.

Closest report is Faa'a International Airport, 169.2 nm (313.4 km) SSW. Retrieved 2021/10/25 14:30 UTC (3 hours ago):

NTAA 251430Z 19004KT 9999 FEW023 SCT070 BKN220 23/21 Q1012 NOSIG

Closest aviation forecast (TAF) to Mataiva Airport

Closest forecast is Faa'a International Airport, 169.2 nm (313.4 km) SSW. Retrieved 2021/10/25 12:54 UTC (4 hours ago):

TAF NTAA 251100Z 2512/2618 VRB05KT 9999 FEW020 BKN060 BKN100 TEMPO 2512/2612 4500 SHRA FEW018TCU PROB30 TEMPO 2523/2524 05015G25KT